sensor_id;sensor_type;location;lat;lon;timestamp;P1;durP1;ratioP1;P2;durP2;ratioP2
37091;SDS011;23005;51.998;4.502;2023-04-01T11:47:48;59.13;;;22.50;;
37091;SDS011;23005;51.998;4.502;2023-04-01T11:49:36;55.28;;;21.75;;
37091;SDS011;23005;51.998;4.502;2023-04-01T11:51:08;65.53;;;23.83;;
37091;SDS011;23005;51.998;4.502;2023-04-01T11:52:50;65.63;;;23.65;;
37091;SDS011;23005;51.998;4.502;2023-04-01T11:54:26;60.70;;;22.98;;
37091;SDS011;23005;51.998;4.502;2023-04-01T11:56:07;61.22;;;23.15;;
37091;SDS011;23005;51.998;4.502;2023-04-01T11:57:38;68.28;;;24.45;;
37091;SDS011;23005;51.998;4.502;2023-04-01T12:01:10;60.05;;;21.05;;
37091;SDS011;23005;51.998;4.502;2023-04-01T12:03:00;64.82;;;23.52;;
37091;SDS011;23005;51.998;4.502;2023-04-01T12:06:25;64.70;;;24.30;;
37091;SDS011;23005;51.998;4.502;2023-04-01T12:07:55;63.42;;;23.13;;
37091;SDS011;23005;51.998;4.502;2023-04-01T12:09:23;55.55;;;20.58;;
37091;SDS011;23005;51.998;4.502;2023-04-01T12:10:51;52.35;;;21.10;;
37091;SDS011;23005;51.998;4.502;2023-04-01T12:12:18;53.80;;;20.90;;
37091;SDS011;23005;51.998;4.502;2023-04-01T12:13:47;60.33;;;22.90;;
37091;SDS011;23005;51.998;4.502;2023-04-01T12:15:14;61.67;;;21.23;;
37091;SDS011;23005;51.998;4.502;2023-04-01T12:16:44;62.53;;;22.65;;
37091;SDS011;23005;51.998;4.502;2023-04-01T12:18:13;47.65;;;20.08;;
37091;SDS011;23005;51.998;4.502;2023-04-01T12:19:41;50.10;;;20.92;;
37091;SDS011;23005;51.998;4.502;2023-04-01T12:21:10;47.85;;;19.20;;
37091;SDS011;23005;51.998;4.502;2023-04-01T12:22:41;55.22;;;21.10;;
37091;SDS011;23005;51.998;4.502;2023-04-01T12:24:25;49.88;;;18.85;;
37091;SDS011;23005;51.998;4.502;2023-04-01T12:26:01;50.55;;;18.88;;
37091;SDS011;23005;51.998;4.502;2023-04-01T12:27:35;40.55;;;17.70;;
37091;SDS011;23005;51.998;4.502;2023-04-01T12:29:05;44.50;;;17.30;;
37091;SDS011;23005;51.998;4.502;2023-04-01T12:30:37;46.17;;;17.52;;
37091;SDS011;23005;51.998;4.502;2023-04-01T12:32:03;44.00;;;17.25;;
37091;SDS011;23005;51.998;4.502;2023-04-01T12:35:19;38.67;;;17.23;;
37091;SDS011;23005;51.998;4.502;2023-04-01T12:36:45;39.78;;;17.38;;
37091;SDS011;23005;51.998;4.502;2023-04-01T12:38:15;42.80;;;18.10;;
37091;SDS011;23005;51.998;4.502;2023-04-01T12:39:57;47.42;;;19.58;;
37091;SDS011;23005;51.998;4.502;2023-04-01T12:41:24;45.53;;;17.88;;
37091;SDS011;23005;51.998;4.502;2023-04-01T12:42:59;44.08;;;18.73;;
37091;SDS011;23005;51.998;4.502;2023-04-01T12:44:31;47.97;;;18.20;;
37091;SDS011;23005;51.998;4.502;2023-04-01T12:46:01;44.00;;;18.77;;
37091;SDS011;23005;51.998;4.502;2023-04-01T12:49:14;47.85;;;18.48;;
37091;SDS011;23005;51.998;4.502;2023-04-01T12:50:52;49.22;;;19.15;;
37091;SDS011;23005;51.998;4.502;2023-04-01T12:52:23;40.30;;;17.70;;
37091;SDS011;23005;51.998;4.502;2023-04-01T12:53:57;37.38;;;18.15;;
37091;SDS011;23005;51.998;4.502;2023-04-01T12:55:40;47.53;;;18.65;;
37091;SDS011;23005;51.998;4.502;2023-04-01T12:57:05;36.60;;;16.52;;
37091;SDS011;23005;51.998;4.502;2023-04-01T13:00:03;41.50;;;17.23;;
37091;SDS011;23005;51.998;4.502;2023-04-01T13:01:40;42.47;;;17.60;;
37091;SDS011;23005;51.998;4.502;2023-04-01T13:03:27;43.10;;;16.80;;
37091;SDS011;23005;51.998;4.502;2023-04-01T13:05:05;38.35;;;15.70;;
37091;SDS011;23005;51.998;4.502;2023-04-01T13:06:42;48.15;;;19.60;;
37091;SDS011;23005;51.998;4.502;2023-04-01T13:08:10;43.22;;;18.33;;
37091;SDS011;23005;51.998;4.502;2023-04-01T13:09:43;48.75;;;18.73;;
37091;SDS011;23005;51.998;4.502;2023-04-01T13:11:13;47.10;;;19.80;;
37091;SDS011;23005;51.998;4.502;2023-04-01T13:12:51;48.28;;;19.35;;
37091;SDS011;23005;51.998;4.502;2023-04-01T13:14:44;49.80;;;18.25;;
37091;SDS011;23005;51.998;4.502;2023-04-01T13:16:17;54.17;;;19.63;;
37091;SDS011;23005;51.998;4.502;2023-04-01T13:17:42;49.80;;;18.25;;
37091;SDS011;23005;51.998;4.502;2023-04-01T13:19:06;42.38;;;18.02;;
37091;SDS011;23005;51.998;4.502;2023-04-01T13:20:34;43.08;;;16.05;;
37091;SDS011;23005;51.998;4.502;2023-04-01T13:22:05;48.10;;;18.15;;
37091;SDS011;23005;51.998;4.502;2023-04-01T13:23:38;50.60;;;17.27;;
37091;SDS011;23005;51.998;4.502;2023-04-01T13:25:16;47.03;;;17.77;;
37091;SDS011;23005;51.998;4.502;2023-04-01T13:26:46;46.28;;;17.48;;
37091;SDS011;23005;51.998;4.502;2023-04-01T13:28:15;45.22;;;16.98;;
37091;SDS011;23005;51.998;4.502;2023-04-01T13:29:38;49.70;;;16.17;;
37091;SDS011;23005;51.998;4.502;2023-04-01T13:31:05;54.53;;;17.98;;
37091;SDS011;23005;51.998;4.502;2023-04-01T13:32:32;38.30;;;15.93;;
37091;SDS011;23005;51.998;4.502;2023-04-01T13:34:06;37.85;;;15.23;;
37091;SDS011;23005;51.998;4.502;2023-04-01T13:35:38;37.55;;;14.10;;
37091;SDS011;23005;51.998;4.502;2023-04-01T13:37:06;33.70;;;12.90;;
37091;SDS011;23005;51.998;4.502;2023-04-01T13:38:45;35.00;;;13.68;;
37091;SDS011;23005;51.998;4.502;2023-04-01T13:40:23;36.88;;;12.18;;
37091;SDS011;23005;51.998;4.502;2023-04-01T13:41:52;36.88;;;12.70;;
37091;SDS011;23005;51.998;4.502;2023-04-01T13:43:21;35.28;;;12.15;;
37091;SDS011;23005;51.998;4.502;2023-04-01T13:44:45;30.83;;;11.73;;
37091;SDS011;23005;51.998;4.502;2023-04-01T13:46:15;36.85;;;13.35;;
37091;SDS011;23005;51.998;4.502;2023-04-01T13:48:17;39.50;;;13.70;;
37091;SDS011;23005;51.998;4.502;2023-04-01T13:49:53;34.70;;;12.57;;
37091;SDS011;23005;51.998;4.502;2023-04-01T13:54:44;29.60;;;10.85;;
37091;SDS011;23005;51.998;4.502;2023-04-01T13:56:14;31.55;;;11.80;;
37091;SDS011;23005;51.998;4.502;2023-04-01T13:57:43;28.33;;;11.73;;
37091;SDS011;23005;51.998;4.502;2023-04-01T13:59:20;25.33;;;10.43;;
37091;SDS011;23005;51.998;4.502;2023-04-01T14:00:55;25.45;;;11.68;;
37091;SDS011;23005;51.998;4.502;2023-04-01T14:02:38;26.52;;;10.45;;
37091;SDS011;23005;51.998;4.502;2023-04-01T14:04:27;26.25;;;10.85;;
37091;SDS011;23005;51.998;4.502;2023-04-01T14:05:56;33.88;;;12.25;;
37091;SDS011;23005;51.998;4.502;2023-04-01T14:07:35;29.15;;;10.40;;
37091;SDS011;23005;51.998;4.502;2023-04-01T14:09:14;33.00;;;12.30;;
37091;SDS011;23005;51.998;4.502;2023-04-01T14:10:45;24.88;;;10.65;;
37091;SDS011;23005;51.998;4.502;2023-04-01T14:12:14;36.45;;;11.73;;
37091;SDS011;23005;51.998;4.502;2023-04-01T14:13:48;28.70;;;11.38;;
37091;SDS011;23005;51.998;4.502;2023-04-01T14:15:20;29.48;;;10.73;;
37091;SDS011;23005;51.998;4.502;2023-04-01T14:16:59;30.80;;;10.65;;
37091;SDS011;23005;51.998;4.502;2023-04-01T14:18:53;37.55;;;11.40;;
37091;SDS011;23005;51.998;4.502;2023-04-01T14:20:25;35.78;;;10.98;;
37091;SDS011;23005;51.998;4.502;2023-04-01T14:21:50;45.50;;;12.35;;
37091;SDS011;23005;51.998;4.502;2023-04-01T14:28:49;38.75;;;11.38;;
37091;SDS011;23005;51.998;4.502;2023-04-01T14:30:20;37.47;;;11.57;;
37091;SDS011;23005;51.998;4.502;2023-04-01T14:31:55;32.30;;;9.90;;
37091;SDS011;23005;51.998;4.502;2023-04-01T14:33:25;37.65;;;11.15;;
37091;SDS011;23005;51.998;4.502;2023-04-01T14:34:53;44.83;;;10.13;;
37091;SDS011;23005;51.998;4.502;2023-04-01T14:36:29;41.05;;;11.68;;
37091;SDS011;23005;51.998;4.502;2023-04-01T14:41:48;38.88;;;10.13;;
37091;SDS011;23005;51.998;4.502;2023-04-01T14:43:16;38.53;;;11.55;;
37091;SDS011;23005;51.998;4.502;2023-04-01T14:44:49;40.67;;;10.52;;
37091;SDS011;23005;51.998;4.502;2023-04-01T14:46:27;40.17;;;10.80;;
37091;SDS011;23005;51.998;4.502;2023-04-01T14:48:14;41.63;;;11.10;;
37091;SDS011;23005;51.998;4.502;2023-04-01T14:49:42;34.58;;;11.13;;
37091;SDS011;23005;51.998;4.502;2023-04-01T14:51:08;38.58;;;10.63;;
37091;SDS011;23005;51.998;4.502;2023-04-01T14:52:31;45.85;;;11.98;;
37091;SDS011;23005;51.998;4.502;2023-04-01T14:53:56;33.00;;;11.05;;
37091;SDS011;23005;51.998;4.502;2023-04-01T14:55:23;39.00;;;10.90;;
37091;SDS011;23005;51.998;4.502;2023-04-01T14:56:50;39.00;;;10.30;;
37091;SDS011;23005;51.998;4.502;2023-04-01T14:58:12;39.47;;;10.15;;
37091;SDS011;23005;51.998;4.502;2023-04-01T14:59:33;33.63;;;10.93;;
37091;SDS011;23005;51.998;4.502;2023-04-01T15:01:09;43.08;;;11.63;;
37091;SDS011;23005;51.998;4.502;2023-04-01T15:02:45;39.13;;;11.52;;
37091;SDS011;23005;51.998;4.502;2023-04-01T15:04:23;38.20;;;10.43;;
37091;SDS011;23005;51.998;4.502;2023-04-01T15:06:13;35.65;;;10.52;;
37091;SDS011;23005;51.998;4.502;2023-04-01T15:07:52;35.63;;;10.65;;
37091;SDS011;23005;51.998;4.502;2023-04-01T15:09:22;32.05;;;10.80;;
37091;SDS011;23005;51.998;4.502;2023-04-01T15:12:36;37.55;;;11.00;;
37091;SDS011;23005;51.998;4.502;2023-04-01T15:14:10;27.27;;;10.57;;
37091;SDS011;23005;51.998;4.502;2023-04-01T15:15:39;43.05;;;11.93;;
37091;SDS011;23005;51.998;4.502;2023-04-01T15:17:19;37.10;;;11.52;;
37091;SDS011;23005;51.998;4.502;2023-04-01T15:18:49;42.35;;;12.23;;
37091;SDS011;23005;51.998;4.502;2023-04-01T15:20:17;35.40;;;12.10;;
37091;SDS011;23005;51.998;4.502;2023-04-01T15:23:37;36.42;;;12.65;;
37091;SDS011;23005;51.998;4.502;2023-04-01T15:25:05;35.67;;;12.60;;
37091;SDS011;23005;51.998;4.502;2023-04-01T15:26:46;42.65;;;13.25;;
37091;SDS011;23005;51.998;4.502;2023-04-01T15:28:28;33.30;;;11.10;;
37091;SDS011;23005;51.998;4.502;2023-04-01T15:30:07;37.83;;;11.07;;
37091;SDS011;23005;51.998;4.502;2023-04-01T15:31:38;31.10;;;12.15;;
37091;SDS011;23005;51.998;4.502;2023-04-01T15:33:06;39.45;;;12.13;;
37091;SDS011;23005;51.998;4.502;2023-04-01T15:34:37;37.97;;;12.70;;
37091;SDS011;23005;51.998;4.502;2023-04-01T15:36:04;39.28;;;12.77;;
37091;SDS011;23005;51.998;4.502;2023-04-01T15:37:32;37.97;;;13.13;;
37091;SDS011;23005;51.998;4.502;2023-04-01T15:38:58;42.45;;;13.10;;
37091;SDS011;23005;51.998;4.502;2023-04-01T15:40:24;42.78;;;13.35;;
37091;SDS011;23005;51.998;4.502;2023-04-01T15:41:51;40.20;;;12.82;;
37091;SDS011;23005;51.998;4.502;2023-04-01T15:43:25;42.35;;;12.25;;
37091;SDS011;23005;51.998;4.502;2023-04-01T15:44:52;47.03;;;14.85;;
37091;SDS011;23005;51.998;4.502;2023-04-01T15:48:06;40.40;;;13.77;;
37091;SDS011;23005;51.998;4.502;2023-04-01T15:49:39;56.05;;;15.07;;
37091;SDS011;23005;51.998;4.502;2023-04-01T15:51:04;39.78;;;14.25;;
37091;SDS011;23005;51.998;4.502;2023-04-01T15:52:37;48.50;;;16.33;;
37091;SDS011;23005;51.998;4.502;2023-04-01T15:54:20;37.60;;;14.50;;
37091;SDS011;23005;51.998;4.502;2023-04-01T15:55:46;44.30;;;16.05;;
37091;SDS011;23005;51.998;4.502;2023-04-01T15:57:14;37.95;;;14.73;;
37091;SDS011;23005;51.998;4.502;2023-04-01T15:58:43;29.70;;;13.77;;
37091;SDS011;23005;51.998;4.502;2023-04-01T16:00:13;42.20;;;16.75;;
37091;SDS011;23005;51.998;4.502;2023-04-01T16:01:44;28.08;;;14.73;;
37091;SDS011;23005;51.998;4.502;2023-04-01T16:03:15;26.95;;;15.10;;
37091;SDS011;23005;51.998;4.502;2023-04-01T16:04:43;27.38;;;14.65;;
37091;SDS011;23005;51.998;4.502;2023-04-01T16:06:11;23.15;;;14.98;;
37091;SDS011;23005;51.998;4.502;2023-04-01T16:07:42;23.40;;;15.90;;
37091;SDS011;23005;51.998;4.502;2023-04-01T16:09:21;25.83;;;16.33;;
37091;SDS011;23005;51.998;4.502;2023-04-01T16:10:58;28.08;;;17.65;;
37091;SDS011;23005;51.998;4.502;2023-04-01T16:12:30;34.58;;;18.30;;
37091;SDS011;23005;51.998;4.502;2023-04-01T16:14:04;31.45;;;18.77;;
37091;SDS011;23005;51.998;4.502;2023-04-01T16:15:34;30.00;;;19.13;;
37091;SDS011;23005;51.998;4.502;2023-04-01T16:17:03;30.48;;;18.98;;
37091;SDS011;23005;51.998;4.502;2023-04-01T16:18:33;30.08;;;18.90;;
37091;SDS011;23005;51.998;4.502;2023-04-01T16:21:27;30.20;;;19.15;;
37091;SDS011;23005;51.998;4.502;2023-04-01T16:22:57;28.63;;;17.33;;
37091;SDS011;23005;51.998;4.502;2023-04-01T16:24:22;30.40;;;17.27;;
37091;SDS011;23005;51.998;4.502;2023-04-01T16:25:54;30.02;;;19.33;;
37091;SDS011;23005;51.998;4.502;2023-04-01T16:27:24;29.58;;;20.05;;
37091;SDS011;23005;51.998;4.502;2023-04-01T16:28:50;30.48;;;18.40;;
37091;SDS011;23005;51.998;4.502;2023-04-01T16:30:25;33.65;;;18.25;;
37091;SDS011;23005;51.998;4.502;2023-04-01T16:31:53;26.00;;;17.45;;
37091;SDS011;23005;51.998;4.502;2023-04-01T16:33:20;27.75;;;17.05;;
37091;SDS011;23005;51.998;4.502;2023-04-01T16:34:44;23.85;;;15.90;;
37091;SDS011;23005;51.998;4.502;2023-04-01T16:36:12;26.92;;;17.13;;
37091;SDS011;23005;51.998;4.502;2023-04-01T16:37:43;23.90;;;16.13;;
37091;SDS011;23005;51.998;4.502;2023-04-01T16:39:25;27.17;;;17.15;;
37091;SDS011;23005;51.998;4.502;2023-04-01T16:40:50;23.70;;;16.20;;
37091;SDS011;23005;51.998;4.502;2023-04-01T16:42:31;26.27;;;17.03;;
37091;SDS011;23005;51.998;4.502;2023-04-01T16:43:56;23.05;;;16.63;;
37091;SDS011;23005;51.998;4.502;2023-04-01T16:45:30;25.77;;;17.23;;
37091;SDS011;23005;51.998;4.502;2023-04-01T16:46:53;21.52;;;15.93;;
37091;SDS011;23005;51.998;4.502;2023-04-01T16:48:17;28.83;;;18.75;;
37091;SDS011;23005;51.998;4.502;2023-04-01T16:49:42;24.30;;;15.80;;
37091;SDS011;23005;51.998;4.502;2023-04-01T16:51:09;23.83;;;17.33;;
37091;SDS011;23005;51.998;4.502;2023-04-01T16:52:40;26.02;;;16.75;;
37091;SDS011;23005;51.998;4.502;2023-04-01T16:54:11;26.38;;;17.58;;
37091;SDS011;23005;51.998;4.502;2023-04-01T16:55:35;27.23;;;17.38;;
37091;SDS011;23005;51.998;4.502;2023-04-01T16:57:10;30.75;;;18.70;;
37091;SDS011;23005;51.998;4.502;2023-04-01T16:58:37;24.27;;;18.42;;
37091;SDS011;23005;51.998;4.502;2023-04-01T17:00:03;29.42;;;18.15;;
37091;SDS011;23005;51.998;4.502;2023-04-01T17:01:38;27.20;;;18.38;;
37091;SDS011;23005;51.998;4.502;2023-04-01T17:03:04;27.65;;;19.15;;
37091;SDS011;23005;51.998;4.502;2023-04-01T17:04:33;24.92;;;17.67;;
37091;SDS011;23005;51.998;4.502;2023-04-01T17:06:01;25.13;;;15.25;;
37091;SDS011;23005;51.998;4.502;2023-04-01T17:07:37;25.25;;;17.25;;
37091;SDS011;23005;51.998;4.502;2023-04-01T17:09:02;23.02;;;16.13;;
37091;SDS011;23005;51.998;4.502;2023-04-01T17:10:33;28.40;;;17.70;;
37091;SDS011;23005;51.998;4.502;2023-04-01T17:11:59;25.52;;;16.73;;
37091;SDS011;23005;51.998;4.502;2023-04-01T17:13:28;25.70;;;17.35;;
37091;SDS011;23005;51.998;4.502;2023-04-01T17:14:54;21.55;;;15.25;;
37091;SDS011;23005;51.998;4.502;2023-04-01T17:16:36;23.98;;;15.85;;
37091;SDS011;23005;51.998;4.502;2023-04-01T17:18:08;26.00;;;15.60;;
37091;SDS011;23005;51.998;4.502;2023-04-01T17:19:37;25.05;;;15.43;;
37091;SDS011;23005;51.998;4.502;2023-04-01T17:21:04;25.42;;;16.55;;
37091;SDS011;23005;51.998;4.502;2023-04-01T17:22:31;25.48;;;16.80;;
37091;SDS011;23005;51.998;4.502;2023-04-01T17:23:58;20.52;;;15.10;;
37091;SDS011;23005;51.998;4.502;2023-04-01T17:25:28;24.50;;;15.65;;
37091;SDS011;23005;51.998;4.502;2023-04-01T17:26:55;29.83;;;17.42;;
37091;SDS011;23005;51.998;4.502;2023-04-01T17:28:26;26.52;;;16.48;;
37091;SDS011;23005;51.998;4.502;2023-04-01T17:30:02;23.10;;;16.38;;
37091;SDS011;23005;51.998;4.502;2023-04-01T17:31:44;18.63;;;14.27;;
37091;SDS011;23005;51.998;4.502;2023-04-01T17:35:00;18.35;;;13.57;;
37091;SDS011;23005;51.998;4.502;2023-04-01T17:36:33;23.58;;;15.02;;
37091;SDS011;23005;51.998;4.502;2023-04-01T17:38:04;22.05;;;14.80;;
37091;SDS011;23005;51.998;4.502;2023-04-01T17:39:32;21.25;;;14.55;;
37091;SDS011;23005;51.998;4.502;2023-04-01T17:41:02;20.13;;;14.73;;
37091;SDS011;23005;51.998;4.502;2023-04-01T17:42:31;23.08;;;15.13;;
37091;SDS011;23005;51.998;4.502;2023-04-01T17:43:57;24.38;;;15.38;;
37091;SDS011;23005;51.998;4.502;2023-04-01T17:45:24;21.30;;;15.45;;
37091;SDS011;23005;51.998;4.502;2023-04-01T17:46:56;18.00;;;14.23;;
37091;SDS011;23005;51.998;4.502;2023-04-01T17:48:24;25.58;;;14.18;;
37091;SDS011;23005;51.998;4.502;2023-04-01T17:49:58;22.65;;;14.95;;
37091;SDS011;23005;51.998;4.502;2023-04-01T17:51:24;22.27;;;13.85;;
37091;SDS011;23005;51.998;4.502;2023-04-01T17:53:03;18.77;;;14.20;;
37091;SDS011;23005;51.998;4.502;2023-04-01T17:54:33;19.10;;;14.70;;
37091;SDS011;23005;51.998;4.502;2023-04-01T17:56:08;20.10;;;14.25;;
37091;SDS011;23005;51.998;4.502;2023-04-01T17:57:39;20.90;;;14.57;;
37091;SDS011;23005;51.998;4.502;2023-04-01T17:59:09;20.70;;;15.23;;
37091;SDS011;23005;51.998;4.502;2023-04-01T18:00:36;23.30;;;14.35;;
37091;SDS011;23005;51.998;4.502;2023-04-01T18:02:18;19.13;;;14.50;;
37091;SDS011;23005;51.998;4.502;2023-04-01T18:03:55;20.30;;;13.98;;
37091;SDS011;23005;51.998;4.502;2023-04-01T18:05:47;19.15;;;14.13;;
37091;SDS011;23005;51.998;4.502;2023-04-01T18:07:15;21.23;;;15.35;;
37091;SDS011;23005;51.998;4.502;2023-04-01T18:08:55;22.25;;;14.30;;
37091;SDS011;23005;51.998;4.502;2023-04-01T18:10:21;22.65;;;14.77;;
37091;SDS011;23005;51.998;4.502;2023-04-01T18:11:49;18.23;;;14.73;;
37091;SDS011;23005;51.998;4.502;2023-04-01T18:15:14;21.00;;;14.98;;
37091;SDS011;23005;51.998;4.502;2023-04-01T18:16:43;22.30;;;15.13;;
37091;SDS011;23005;51.998;4.502;2023-04-01T18:18:19;19.85;;;14.60;;
37091;SDS011;23005;51.998;4.502;2023-04-01T18:19:59;17.60;;;14.70;;
37091;SDS011;23005;51.998;4.502;2023-04-01T18:21:27;18.02;;;13.82;;
37091;SDS011;23005;51.998;4.502;2023-04-01T18:22:53;20.88;;;14.63;;
37091;SDS011;23005;51.998;4.502;2023-04-01T18:24:21;18.27;;;12.73;;
37091;SDS011;23005;51.998;4.502;2023-04-01T18:25:47;16.27;;;11.63;;
37091;SDS011;23005;51.998;4.502;2023-04-01T18:27:11;14.40;;;10.77;;
37091;SDS011;23005;51.998;4.502;2023-04-01T18:28:36;14.20;;;10.05;;
37091;SDS011;23005;51.998;4.502;2023-04-01T18:29:59;13.27;;;9.27;;
37091;SDS011;23005;51.998;4.502;2023-04-01T18:31:23;11.05;;;9.05;;
37091;SDS011;23005;51.998;4.502;2023-04-01T18:32:47;11.88;;;9.55;;
37091;SDS011;23005;51.998;4.502;2023-04-01T18:34:12;12.02;;;9.27;;
37091;SDS011;23005;51.998;4.502;2023-04-01T18:35:44;9.70;;;7.90;;
37091;SDS011;23005;51.998;4.502;2023-04-01T18:37:12;10.55;;;8.50;;
37091;SDS011;23005;51.998;4.502;2023-04-01T18:38:38;13.73;;;8.80;;
37091;SDS011;23005;51.998;4.502;2023-04-01T18:40:03;12.07;;;8.15;;
37091;SDS011;23005;51.998;4.502;2023-04-01T18:41:34;11.25;;;8.55;;
37091;SDS011;23005;51.998;4.502;2023-04-01T18:43:01;11.93;;;9.38;;
37091;SDS011;23005;51.998;4.502;2023-04-01T18:44:34;14.20;;;10.20;;
37091;SDS011;23005;51.998;4.502;2023-04-01T18:46:03;14.35;;;10.35;;
37091;SDS011;23005;51.998;4.502;2023-04-01T18:47:32;14.90;;;10.38;;
37091;SDS011;23005;51.998;4.502;2023-04-01T18:49:00;12.95;;;10.85;;
37091;SDS011;23005;51.998;4.502;2023-04-01T18:50:29;17.00;;;11.63;;
37091;SDS011;23005;51.998;4.502;2023-04-01T18:51:55;16.50;;;12.27;;
37091;SDS011;23005;51.998;4.502;2023-04-01T18:53:19;17.48;;;13.98;;
37091;SDS011;23005;51.998;4.502;2023-04-01T18:54:45;15.80;;;12.45;;
37091;SDS011;23005;51.998;4.502;2023-04-01T18:56:10;20.23;;;14.25;;
37091;SDS011;23005;51.998;4.502;2023-04-01T18:57:38;17.40;;;13.50;;
37091;SDS011;23005;51.998;4.502;2023-04-01T18:59:02;19.52;;;14.68;;
37091;SDS011;23005;51.998;4.502;2023-04-01T19:00:26;16.92;;;13.73;;
37091;SDS011;23005;51.998;4.502;2023-04-01T19:01:51;17.15;;;13.77;;
37091;SDS011;23005;51.998;4.502;2023-04-01T19:03:19;17.33;;;13.82;;
37091;SDS011;23005;51.998;4.502;2023-04-01T19:04:42;19.17;;;13.32;;
37091;SDS011;23005;51.998;4.502;2023-04-01T19:06:18;17.23;;;13.07;;
37091;SDS011;23005;51.998;4.502;2023-04-01T19:07:44;16.85;;;12.10;;
37091;SDS011;23005;51.998;4.502;2023-04-01T19:09:14;17.45;;;13.68;;
37091;SDS011;23005;51.998;4.502;2023-04-01T19:10:41;18.05;;;13.10;;
37091;SDS011;23005;51.998;4.502;2023-04-01T19:14:00;17.10;;;12.55;;
37091;SDS011;23005;51.998;4.502;2023-04-01T19:15:28;15.60;;;12.60;;
37091;SDS011;23005;51.998;4.502;2023-04-01T19:16:54;17.85;;;13.02;;
37091;SDS011;23005;51.998;4.502;2023-04-01T19:18:28;16.33;;;10.93;;
37091;SDS011;23005;51.998;4.502;2023-04-01T19:20:06;14.48;;;11.55;;
37091;SDS011;23005;51.998;4.502;2023-04-01T19:21:35;16.35;;;11.80;;
37091;SDS011;23005;51.998;4.502;2023-04-01T19:23:07;12.88;;;11.38;;
37091;SDS011;23005;51.998;4.502;2023-04-01T19:25:00;15.88;;;12.30;;
37091;SDS011;23005;51.998;4.502;2023-04-01T19:26:28;16.55;;;12.38;;
37091;SDS011;23005;51.998;4.502;2023-04-01T19:27:51;17.38;;;12.32;;
37091;SDS011;23005;51.998;4.502;2023-04-01T19:29:17;18.90;;;13.27;;
37091;SDS011;23005;51.998;4.502;2023-04-01T19:30:49;15.63;;;12.15;;
37091;SDS011;23005;51.998;4.502;2023-04-01T19:32:15;16.88;;;12.13;;
37091;SDS011;23005;51.998;4.502;2023-04-01T19:33:43;15.95;;;12.25;;
37091;SDS011;23005;51.998;4.502;2023-04-01T19:35:11;14.55;;;11.32;;
37091;SDS011;23005;51.998;4.502;2023-04-01T19:36:42;12.88;;;11.45;;
37091;SDS011;23005;51.998;4.502;2023-04-01T19:38:10;14.20;;;11.98;;
37091;SDS011;23005;51.998;4.502;2023-04-01T19:39:37;12.13;;;10.43;;
37091;SDS011;23005;51.998;4.502;2023-04-01T19:41:06;12.43;;;9.95;;
37091;SDS011;23005;51.998;4.502;2023-04-01T19:42:36;12.88;;;10.50;;
37091;SDS011;23005;51.998;4.502;2023-04-01T19:44:04;11.55;;;10.27;;
37091;SDS011;23005;51.998;4.502;2023-04-01T19:45:36;15.23;;;11.23;;
37091;SDS011;23005;51.998;4.502;2023-04-01T19:47:02;11.38;;;9.10;;
37091;SDS011;23005;51.998;4.502;2023-04-01T19:48:34;13.25;;;9.85;;
37091;SDS011;23005;51.998;4.502;2023-04-01T19:50:04;14.07;;;9.45;;
37091;SDS011;23005;51.998;4.502;2023-04-01T19:51:35;13.55;;;9.73;;
37091;SDS011;23005;51.998;4.502;2023-04-01T19:53:01;11.27;;;9.80;;
37091;SDS011;23005;51.998;4.502;2023-04-01T19:54:34;13.60;;;9.80;;
37091;SDS011;23005;51.998;4.502;2023-04-01T19:56:00;14.07;;;9.80;;
37091;SDS011;23005;51.998;4.502;2023-04-01T19:57:26;11.73;;;9.63;;
37091;SDS011;23005;51.998;4.502;2023-04-01T19:58:58;16.55;;;10.93;;
37091;SDS011;23005;51.998;4.502;2023-04-01T20:00:25;15.88;;;11.60;;
37091;SDS011;23005;51.998;4.502;2023-04-01T20:01:49;14.80;;;12.35;;
37091;SDS011;23005;51.998;4.502;2023-04-01T20:03:14;17.10;;;13.07;;
37091;SDS011;23005;51.998;4.502;2023-04-01T20:04:40;18.02;;;12.68;;
37091;SDS011;23005;51.998;4.502;2023-04-01T20:06:04;17.45;;;13.35;;
37091;SDS011;23005;51.998;4.502;2023-04-01T20:09:02;20.58;;;13.52;;
37091;SDS011;23005;51.998;4.502;2023-04-01T20:10:43;19.70;;;13.82;;
37091;SDS011;23005;51.998;4.502;2023-04-01T20:12:10;20.10;;;14.05;;
37091;SDS011;23005;51.998;4.502;2023-04-01T20:13:41;22.13;;;15.07;;
37091;SDS011;23005;51.998;4.502;2023-04-01T20:15:19;16.70;;;13.55;;
37091;SDS011;23005;51.998;4.502;2023-04-01T20:16:48;18.00;;;13.63;;
37091;SDS011;23005;51.998;4.502;2023-04-01T20:18:13;19.15;;;15.15;;
37091;SDS011;23005;51.998;4.502;2023-04-01T20:19:36;20.42;;;14.02;;
37091;SDS011;23005;51.998;4.502;2023-04-01T20:21:00;18.13;;;13.73;;
37091;SDS011;23005;51.998;4.502;2023-04-01T20:22:26;23.95;;;15.00;;
37091;SDS011;23005;51.998;4.502;2023-04-01T20:23:53;23.08;;;13.55;;
37091;SDS011;23005;51.998;4.502;2023-04-01T20:25:17;19.70;;;13.63;;
37091;SDS011;23005;51.998;4.502;2023-04-01T20:26:41;18.83;;;11.80;;
37091;SDS011;23005;51.998;4.502;2023-04-01T20:28:05;16.17;;;11.52;;
37091;SDS011;23005;51.998;4.502;2023-04-01T20:29:35;17.40;;;12.75;;
37091;SDS011;23005;51.998;4.502;2023-04-01T20:31:01;13.82;;;10.70;;
37091;SDS011;23005;51.998;4.502;2023-04-01T20:32:37;14.10;;;10.75;;
37091;SDS011;23005;51.998;4.502;2023-04-01T20:36:00;15.48;;;9.98;;
37091;SDS011;23005;51.998;4.502;2023-04-01T20:37:32;15.77;;;10.10;;
37091;SDS011;23005;51.998;4.502;2023-04-01T20:39:10;12.68;;;9.68;;
37091;SDS011;23005;51.998;4.502;2023-04-01T20:40:51;15.98;;;10.57;;
37091;SDS011;23005;51.998;4.502;2023-04-01T20:42:21;15.18;;;11.10;;
37091;SDS011;23005;51.998;4.502;2023-04-01T20:43:52;22.83;;;13.23;;
37091;SDS011;23005;51.998;4.502;2023-04-01T20:45:22;23.58;;;14.30;;
37091;SDS011;23005;51.998;4.502;2023-04-01T20:46:48;26.65;;;16.08;;
37091;SDS011;23005;51.998;4.502;2023-04-01T20:48:22;23.05;;;15.82;;
37091;SDS011;23005;51.998;4.502;2023-04-01T20:49:53;24.48;;;15.52;;
37091;SDS011;23005;51.998;4.502;2023-04-01T20:51:15;20.13;;;15.43;;
37091;SDS011;23005;51.998;4.502;2023-04-01T20:52:37;20.92;;;15.43;;
37091;SDS011;23005;51.998;4.502;2023-04-01T20:54:05;20.77;;;13.35;;
37091;SDS011;23005;51.998;4.502;2023-04-01T20:57:30;17.17;;;12.65;;
37091;SDS011;23005;51.998;4.502;2023-04-01T20:58:53;19.17;;;11.13;;
37091;SDS011;23005;51.998;4.502;2023-04-01T21:02:03;16.08;;;11.40;;
37091;SDS011;23005;51.998;4.502;2023-04-01T21:03:34;15.20;;;11.27;;
37091;SDS011;23005;51.998;4.502;2023-04-01T21:05:08;14.25;;;10.15;;
37091;SDS011;23005;51.998;4.502;2023-04-01T21:06:50;13.60;;;10.23;;
37091;SDS011;23005;51.998;4.502;2023-04-01T21:08:20;12.63;;;9.33;;
37091;SDS011;23005;51.998;4.502;2023-04-01T21:09:49;14.45;;;9.90;;
37091;SDS011;23005;51.998;4.502;2023-04-01T21:11:18;12.68;;;9.15;;
37091;SDS011;23005;51.998;4.502;2023-04-01T21:12:44;14.55;;;9.82;;
37091;SDS011;23005;51.998;4.502;2023-04-01T21:14:24;17.13;;;10.93;;
37091;SDS011;23005;51.998;4.502;2023-04-01T21:15:54;13.77;;;10.10;;
37091;SDS011;23005;51.998;4.502;2023-04-01T21:17:23;19.13;;;11.27;;
37091;SDS011;23005;51.998;4.502;2023-04-01T21:19:10;12.70;;;9.27;;
37091;SDS011;23005;51.998;4.502;2023-04-01T21:20:49;13.57;;;9.52;;